createdAt,value
2023-06-21T00:00:00.776Z,23.63
2023-06-21T00:02:29.691Z,23.67
2023-06-21T00:04:56.946Z,25.38
2023-06-21T00:07:25.304Z,24.55
2023-06-21T00:09:53.557Z,26.35
2023-06-21T00:12:21.369Z,24.55
2023-06-21T00:14:48.454Z,24.95
2023-06-21T00:17:15.496Z,24.23
2023-06-21T00:19:42.426Z,25.30
2023-06-21T00:22:09.378Z,25.40
2023-06-21T00:24:36.418Z,25.15
2023-06-21T00:27:03.550Z,25.65
2023-06-21T00:29:30.499Z,25.35
2023-06-21T00:31:59.663Z,26.08
2023-06-21T00:34:26.626Z,25.73
2023-06-21T00:36:54.154Z,26.08
2023-06-21T00:39:21.695Z,29.23
2023-06-21T00:41:49.647Z,26.00
2023-06-21T00:44:16.634Z,28.92
2023-06-21T00:46:43.645Z,27.58
2023-06-21T00:49:10.898Z,28.30
2023-06-21T00:51:40.152Z,28.27
2023-06-21T00:54:07.276Z,26.48
2023-06-21T00:56:37.100Z,27.48
2023-06-21T00:59:05.734Z,27.23
2023-06-21T01:01:33.329Z,27.35
2023-06-21T01:04:01.456Z,27.52
2023-06-21T01:06:51.664Z,25.45
2023-06-21T01:09:33.260Z,26.40
2023-06-21T01:12:41.841Z,27.45
2023-06-21T01:15:16.675Z,29.20
2023-06-21T01:17:46.708Z,32.88
2023-06-21T01:20:19.698Z,27.42
2023-06-21T01:22:52.559Z,27.98
2023-06-21T01:25:39.090Z,30.50
2023-06-21T01:28:21.765Z,30.63
2023-06-21T01:30:50.209Z,33.78
2023-06-21T01:33:21.171Z,32.55
2023-06-21T01:35:50.013Z,31.58
2023-06-21T01:38:17.218Z,32.63
2023-06-21T01:40:44.104Z,34.72
2023-06-21T01:43:11.419Z,32.60
2023-06-21T01:45:39.230Z,33.35
2023-06-21T01:48:07.105Z,34.47
2023-06-21T01:50:35.830Z,33.55
2023-06-21T01:53:04.158Z,33.17
2023-06-21T01:55:32.206Z,34.28
2023-06-21T01:57:59.397Z,35.20
2023-06-21T02:00:28.497Z,34.30
2023-06-21T02:03:04.476Z,34.63
2023-06-21T02:05:33.715Z,36.97
2023-06-21T02:08:01.607Z,33.83
2023-06-21T02:10:29.199Z,33.78
2023-06-21T02:12:56.484Z,33.40
2023-06-21T02:15:24.361Z,34.00
2023-06-21T02:17:52.718Z,32.63
2023-06-21T02:20:22.005Z,40.78
2023-06-21T02:22:49.493Z,36.95
2023-06-21T02:25:17.657Z,35.35
2023-06-21T02:27:44.711Z,40.55
2023-06-21T02:30:12.121Z,39.90
2023-06-21T02:32:39.290Z,36.70
2023-06-21T02:35:07.064Z,38.50
2023-06-21T02:37:34.036Z,32.03
2023-06-21T02:40:07.237Z,31.83
2023-06-21T02:42:34.156Z,34.80
2023-06-21T02:45:01.627Z,37.10
2023-06-21T02:47:28.650Z,32.88
2023-06-21T02:49:55.589Z,34.13
2023-06-21T02:52:22.615Z,33.78
2023-06-21T02:54:49.577Z,34.42
2023-06-21T02:57:16.501Z,31.27
2023-06-21T02:59:43.968Z,33.35
2023-06-21T03:02:11.285Z,37.72
2023-06-21T03:04:38.217Z,35.92
2023-06-21T03:07:06.363Z,38.75
2023-06-21T03:09:33.841Z,35.38
2023-06-21T03:12:04.640Z,37.22
2023-06-21T03:14:31.542Z,37.92
2023-06-21T03:16:58.529Z,36.45
2023-06-21T03:19:25.451Z,39.95
2023-06-21T03:21:52.381Z,36.20
2023-06-21T03:24:19.415Z,33.13
2023-06-21T03:26:46.410Z,34.17
2023-06-21T03:29:13.320Z,35.17
2023-06-21T03:31:40.312Z,36.55
2023-06-21T03:34:07.235Z,34.92
2023-06-21T03:36:34.173Z,37.13
2023-06-21T03:39:01.497Z,38.80
2023-06-21T03:41:28.413Z,34.75
2023-06-21T03:43:55.448Z,39.35
2023-06-21T03:46:22.408Z,33.42
2023-06-21T03:48:52.523Z,32.00
2023-06-21T03:51:20.089Z,29.35
2023-06-21T03:53:47.164Z,30.83
2023-06-21T03:56:14.081Z,27.15
2023-06-21T03:58:43.121Z,27.88
2023-06-21T04:01:10.094Z,25.50
2023-06-21T04:03:37.056Z,23.48
2023-06-21T04:06:04.087Z,29.92
2023-06-21T04:08:31.044Z,27.60
2023-06-21T04:10:57.963Z,24.73
2023-06-21T04:13:24.977Z,25.45
2023-06-21T04:15:52.004Z,27.17
2023-06-21T04:18:18.939Z,26.75
2023-06-21T04:20:47.584Z,24.45
2023-06-21T04:23:14.566Z,22.98
2023-06-21T04:25:41.786Z,25.15
2023-06-21T04:28:11.318Z,21.42
2023-06-21T04:30:38.334Z,20.50
2023-06-21T04:33:05.605Z,19.58
2023-06-21T04:35:34.565Z,17.15
2023-06-21T04:38:01.569Z,21.33
2023-06-21T04:40:28.580Z,20.25
2023-06-21T04:42:59.816Z,21.80
2023-06-21T04:45:27.497Z,17.60
2023-06-21T04:47:59.067Z,18.08
2023-06-21T04:50:27.246Z,17.50
2023-06-21T04:52:59.820Z,20.13
2023-06-21T04:55:28.589Z,19.95
2023-06-21T04:57:56.914Z,15.82
2023-06-21T05:00:24.017Z,17.30
2023-06-21T05:02:51.237Z,15.65
2023-06-21T05:05:18.541Z,18.13
2023-06-21T05:07:45.578Z,19.08
2023-06-21T05:10:12.651Z,19.02
2023-06-21T05:12:39.643Z,18.08
2023-06-21T05:15:07.462Z,20.45
2023-06-21T05:17:35.704Z,23.27
2023-06-21T05:20:06.388Z,25.48
2023-06-21T05:22:33.590Z,24.65
2023-06-21T05:25:03.334Z,25.67
2023-06-21T05:27:31.177Z,26.52
2023-06-21T05:29:58.079Z,24.85
2023-06-21T05:32:27.212Z,28.00
2023-06-21T05:34:54.824Z,27.27
2023-06-21T05:37:21.807Z,25.77
2023-06-21T05:39:48.820Z,20.17
2023-06-21T05:42:15.785Z,22.20
2023-06-21T05:44:42.738Z,18.98
2023-06-21T05:47:09.884Z,19.63
2023-06-21T05:49:36.876Z,19.05
2023-06-21T05:52:04.048Z,16.95
2023-06-21T05:54:31.022Z,18.95
2023-06-21T05:56:58.025Z,17.98
2023-06-21T05:59:24.936Z,22.25
2023-06-21T06:01:52.844Z,20.50
2023-06-21T06:04:19.801Z,15.90
2023-06-21T06:06:47.983Z,16.48
2023-06-21T06:09:14.992Z,15.43
2023-06-21T06:11:41.886Z,21.20
2023-06-21T06:14:12.236Z,21.42
2023-06-21T06:16:39.958Z,18.55
2023-06-21T06:19:07.398Z,18.98
2023-06-21T06:21:34.421Z,20.70
2023-06-21T06:24:01.355Z,20.35
2023-06-21T06:26:28.985Z,23.45
2023-06-21T06:28:56.994Z,18.20
2023-06-21T06:31:25.512Z,17.45
2023-06-21T06:33:52.509Z,19.02
2023-06-21T06:36:19.926Z,15.85
2023-06-21T06:38:48.592Z,17.30
2023-06-21T06:41:15.955Z,14.25
2023-06-21T06:43:43.077Z,16.58
2023-06-21T06:46:10.151Z,13.25
2023-06-21T06:48:37.551Z,18.75
2023-06-21T06:51:04.818Z,14.70
2023-06-21T06:53:31.749Z,16.33
2023-06-21T06:56:00.757Z,16.13
2023-06-21T06:58:31.711Z,13.50
2023-06-21T07:00:58.870Z,14.10
2023-06-21T07:03:25.940Z,14.50
2023-06-21T07:05:53.221Z,13.43
2023-06-21T07:08:20.195Z,10.95
2023-06-21T07:10:47.522Z,14.40
2023-06-21T07:13:14.722Z,12.68
2023-06-21T07:15:41.666Z,12.95
2023-06-21T07:18:08.682Z,15.80
2023-06-21T07:20:36.433Z,15.20
2023-06-21T07:23:04.318Z,14.68
2023-06-21T07:25:31.464Z,14.70
2023-06-21T07:27:58.573Z,16.63
2023-06-21T07:30:26.166Z,14.88
2023-06-21T07:32:53.493Z,13.32
2023-06-21T07:35:20.605Z,12.48
2023-06-21T07:37:47.679Z,11.90
2023-06-21T07:40:15.070Z,11.77
2023-06-21T07:42:42.192Z,14.75
2023-06-21T07:45:10.192Z,14.55
2023-06-21T07:47:37.853Z,13.82
2023-06-21T07:50:20.874Z,15.73
2023-06-21T07:52:48.749Z,11.10
2023-06-21T07:55:15.900Z,13.55
2023-06-21T07:57:43.286Z,11.30
2023-06-21T08:00:13.495Z,15.02
2023-06-21T08:02:42.896Z,12.40
2023-06-21T08:05:10.019Z,12.93
2023-06-21T08:07:37.411Z,11.40
2023-06-21T08:10:04.600Z,11.48
2023-06-21T08:12:31.649Z,11.05
2023-06-21T08:14:58.724Z,11.73
2023-06-21T08:17:25.711Z,15.13
2023-06-21T08:19:52.781Z,12.95
2023-06-21T08:22:19.792Z,11.18
2023-06-21T08:24:46.735Z,13.43
2023-06-21T08:27:15.354Z,13.38
2023-06-21T08:29:42.320Z,14.07
2023-06-21T08:32:09.389Z,12.43
2023-06-21T08:34:36.375Z,10.98
2023-06-21T08:37:03.336Z,11.23
2023-06-21T08:39:32.249Z,10.07
2023-06-21T08:41:59.867Z,12.13
2023-06-21T08:44:26.898Z,10.60
2023-06-21T08:46:56.588Z,10.70
2023-06-21T08:49:27.150Z,10.02
2023-06-21T08:51:54.812Z,10.65
2023-06-21T08:54:25.873Z,14.88
2023-06-21T08:57:10.907Z,10.55
2023-06-21T08:59:51.272Z,11.55
2023-06-21T09:04:53.407Z,9.85
2023-06-21T09:07:22.437Z,11.25
2023-06-21T09:09:51.947Z,12.55
2023-06-21T09:12:19.414Z,14.17
2023-06-21T09:14:47.304Z,11.20
2023-06-21T09:17:15.333Z,9.70
2023-06-21T09:19:43.790Z,12.98
2023-06-21T09:22:12.850Z,14.02
2023-06-21T09:24:39.963Z,9.68
2023-06-21T09:27:06.906Z,8.43
2023-06-21T09:29:34.058Z,8.63
2023-06-21T09:32:03.190Z,9.25
2023-06-21T09:34:30.152Z,10.75
2023-06-21T09:36:57.220Z,9.35
2023-06-21T09:39:28.802Z,8.00
2023-06-21T09:41:57.365Z,8.45
2023-06-21T09:44:24.811Z,8.00
2023-06-21T09:46:59.820Z,8.00
2023-06-21T09:49:30.117Z,10.05
2023-06-21T09:51:57.629Z,8.95
2023-06-21T09:54:24.733Z,7.95
2023-06-21T09:56:51.710Z,8.55
2023-06-21T09:59:21.435Z,11.05
2023-06-21T10:01:51.080Z,9.43
2023-06-21T10:04:18.996Z,13.67
2023-06-21T10:06:52.985Z,10.63
2023-06-21T10:09:20.154Z,9.52
2023-06-21T10:11:49.887Z,11.65
2023-06-21T10:14:24.665Z,11.60
2023-06-21T10:16:55.145Z,12.25
2023-06-21T10:19:23.951Z,10.98
2023-06-21T10:22:21.623Z,11.65
2023-06-21T10:24:51.011Z,12.43
2023-06-21T10:27:20.217Z,14.38
2023-06-21T10:30:00.563Z,12.35
2023-06-21T10:32:29.756Z,8.68
2023-06-21T10:35:16.772Z,9.15
2023-06-21T10:38:04.430Z,10.20
2023-06-21T10:40:32.107Z,9.25
2023-06-21T10:43:00.053Z,11.02
2023-06-21T10:45:29.929Z,9.85
2023-06-21T10:47:57.522Z,8.23
2023-06-21T10:50:25.835Z,10.07
2023-06-21T10:52:57.188Z,9.55
2023-06-21T10:55:24.573Z,9.50
2023-06-21T10:57:56.411Z,9.10
2023-06-21T11:00:26.037Z,11.68
2023-06-21T11:02:54.788Z,8.05
2023-06-21T11:05:26.398Z,10.32
2023-06-21T11:07:59.613Z,8.75
2023-06-21T11:10:43.389Z,7.13
2023-06-21T11:13:11.974Z,9.32
2023-06-21T11:15:40.910Z,9.52
2023-06-21T11:18:10.774Z,8.48
2023-06-21T11:20:48.454Z,6.97
2023-06-21T11:23:20.404Z,10.32
2023-06-21T11:26:14.730Z,6.70
2023-06-21T11:28:45.717Z,6.78
2023-06-21T11:31:15.834Z,6.70
2023-06-21T11:33:54.896Z,8.02
2023-06-21T11:36:30.721Z,8.82
2023-06-21T11:39:20.672Z,7.28
2023-06-21T11:41:48.339Z,6.38
2023-06-21T11:44:21.248Z,6.95
2023-06-21T11:46:50.394Z,8.05
2023-06-21T11:49:17.694Z,11.90
2023-06-21T11:52:03.654Z,9.13
2023-06-21T11:54:31.845Z,9.57
2023-06-21T11:56:59.134Z,10.18
2023-06-21T11:59:27.405Z,10.27
2023-06-21T12:01:54.960Z,8.02
2023-06-21T12:04:29.245Z,10.43
2023-06-21T12:06:59.050Z,13.25
2023-06-21T12:09:27.649Z,10.15
2023-06-21T12:11:54.657Z,9.63
2023-06-21T12:14:21.723Z,10.13
2023-06-21T12:16:51.195Z,9.98
2023-06-21T12:19:22.534Z,16.88
2023-06-21T12:21:49.921Z,8.18
2023-06-21T12:24:29.868Z,8.40
2023-06-21T12:26:58.819Z,8.65
2023-06-21T12:29:28.549Z,8.30
2023-06-21T12:31:58.740Z,9.53
2023-06-21T12:34:26.524Z,10.55
2023-06-21T12:36:56.131Z,8.48
2023-06-21T12:39:24.271Z,10.27
2023-06-21T12:41:51.454Z,10.68
2023-06-21T12:44:24.492Z,8.02
2023-06-21T12:46:53.306Z,10.57
2023-06-21T12:49:20.299Z,12.15
2023-06-21T12:51:48.539Z,14.48
2023-06-21T12:54:21.433Z,10.60
2023-06-21T12:56:59.945Z,13.32
2023-06-21T12:59:28.184Z,10.95
2023-06-21T13:01:57.310Z,8.70
2023-06-21T13:04:24.503Z,9.90
2023-06-21T13:06:51.705Z,7.03
2023-06-21T13:09:18.855Z,10.73
2023-06-21T13:11:47.146Z,9.88
2023-06-21T13:14:14.785Z,12.23
2023-06-21T13:16:41.779Z,9.55
2023-06-21T13:19:08.853Z,12.23
2023-06-21T13:21:35.882Z,10.55
2023-06-21T13:24:04.283Z,9.65
2023-06-21T13:26:31.585Z,11.20
2023-06-21T13:28:58.552Z,8.90
2023-06-21T13:31:26.617Z,9.07
2023-06-21T13:33:54.876Z,9.73
2023-06-21T13:36:24.335Z,10.00
2023-06-21T13:38:51.379Z,10.27
2023-06-21T13:41:18.496Z,12.02
2023-06-21T13:43:45.610Z,12.45
2023-06-21T13:46:12.813Z,10.30
2023-06-21T13:48:39.917Z,9.77
2023-06-21T13:51:06.911Z,10.25
2023-06-21T13:53:33.867Z,11.48
2023-06-21T13:56:00.920Z,10.63
2023-06-21T13:58:27.870Z,9.75
2023-06-21T14:00:54.916Z,11.00
2023-06-21T14:03:22.087Z,13.23
2023-06-21T14:05:49.719Z,11.40
2023-06-21T14:08:18.028Z,11.80
2023-06-21T14:10:45.852Z,11.23
2023-06-21T14:13:14.733Z,9.65
2023-06-21T14:15:41.836Z,11.25
2023-06-21T14:18:11.063Z,10.05
2023-06-21T14:20:39.191Z,11.70
2023-06-21T14:23:06.233Z,12.10
2023-06-21T14:25:33.844Z,10.48
2023-06-21T14:28:00.898Z,9.45
2023-06-21T14:30:28.120Z,11.13
2023-06-21T14:32:55.464Z,12.18
2023-06-21T14:35:22.555Z,13.13
2023-06-21T14:37:51.151Z,10.80
2023-06-21T14:40:18.278Z,14.30
2023-06-21T14:42:45.341Z,15.98
2023-06-21T14:45:12.293Z,13.52
2023-06-21T14:47:39.725Z,12.13
2023-06-21T14:50:07.661Z,11.18
2023-06-21T14:52:34.649Z,9.60
2023-06-21T14:55:01.871Z,9.90
2023-06-21T14:57:29.266Z,8.68
2023-06-21T14:59:57.161Z,9.70
2023-06-21T15:02:24.136Z,12.43
2023-06-21T15:04:51.078Z,8.75
2023-06-21T15:07:19.582Z,11.82
2023-06-21T15:09:47.321Z,13.65
2023-06-21T15:12:14.464Z,10.70
2023-06-21T15:14:41.563Z,8.75
2023-06-21T15:17:08.991Z,10.93
2023-06-21T15:19:36.126Z,8.95
2023-06-21T15:22:03.189Z,8.45
2023-06-21T15:24:30.267Z,9.20
2023-06-21T15:26:58.261Z,9.13
2023-06-21T15:29:25.167Z,8.07
2023-06-21T15:31:52.307Z,8.40
2023-06-21T15:34:19.380Z,7.72
2023-06-21T15:36:46.431Z,7.65
2023-06-21T15:39:13.552Z,11.75
2023-06-21T15:41:45.192Z,9.55
2023-06-21T15:44:12.534Z,9.48
2023-06-21T15:46:39.824Z,8.05
2023-06-21T15:49:06.968Z,8.35
2023-06-21T15:51:33.910Z,7.93
2023-06-21T15:54:00.999Z,7.47
2023-06-21T15:56:28.069Z,6.97
2023-06-21T15:58:55.043Z,7.25
2023-06-21T16:01:22.586Z,7.38
2023-06-21T16:03:50.852Z,7.43
2023-06-21T16:06:19.160Z,7.75
2023-06-21T16:08:47.498Z,7.55
2023-06-21T16:11:15.300Z,7.28
2023-06-21T16:16:13.560Z,10.15
2023-06-21T16:18:40.625Z,9.52
2023-06-21T16:21:07.635Z,8.98
2023-06-21T16:23:34.995Z,7.25
2023-06-21T16:26:02.109Z,8.25
2023-06-21T16:28:29.394Z,8.60
2023-06-21T16:30:56.412Z,7.72
2023-06-21T16:33:23.387Z,6.95
2023-06-21T16:35:50.405Z,9.35
2023-06-21T16:38:19.896Z,7.80
2023-06-21T16:40:47.327Z,7.97
2023-06-21T16:43:15.043Z,11.07
2023-06-21T16:45:42.068Z,7.40
2023-06-21T16:48:09.112Z,7.13
2023-06-21T16:50:36.365Z,8.60
2023-06-21T16:53:03.483Z,7.40
2023-06-21T16:55:30.851Z,10.13
2023-06-21T16:57:58.408Z,8.80
2023-06-21T17:00:25.419Z,8.38
2023-06-21T17:02:54.657Z,7.05
2023-06-21T17:05:24.920Z,8.73
2023-06-21T17:07:52.953Z,6.43
2023-06-21T17:10:20.456Z,8.75
2023-06-21T17:12:47.994Z,10.93
2023-06-21T17:15:15.303Z,6.00
2023-06-21T17:17:43.337Z,7.78
2023-06-21T17:20:11.477Z,7.65
2023-06-21T17:22:38.778Z,6.43
2023-06-21T17:25:06.409Z,7.82
2023-06-21T17:27:33.686Z,7.80
2023-06-21T17:30:00.659Z,8.23
2023-06-21T17:32:28.206Z,8.63
2023-06-21T17:34:55.318Z,7.22
2023-06-21T17:37:22.384Z,8.15
2023-06-21T17:39:49.415Z,7.80
2023-06-21T17:42:16.524Z,6.00
2023-06-21T17:44:43.767Z,7.50
2023-06-21T17:47:11.531Z,7.53
2023-06-21T17:49:38.541Z,6.32
2023-06-21T17:52:06.035Z,9.45
2023-06-21T17:54:33.889Z,6.93
2023-06-21T17:57:01.056Z,6.57
2023-06-21T17:59:29.753Z,5.57
2023-06-21T18:01:56.940Z,8.10
2023-06-21T18:04:24.086Z,6.90
2023-06-21T18:06:51.280Z,7.53
2023-06-21T18:09:18.477Z,6.60
2023-06-21T18:11:45.519Z,7.72
2023-06-21T18:14:13.714Z,8.38
2023-06-21T18:16:40.686Z,7.55
2023-06-21T18:19:07.673Z,10.50
2023-06-21T18:21:34.746Z,6.57
2023-06-21T18:24:15.487Z,7.32
2023-06-21T18:26:42.704Z,6.45
2023-06-21T18:29:09.642Z,9.85
2023-06-21T18:31:36.661Z,8.95
2023-06-21T18:34:03.683Z,7.15
2023-06-21T18:36:30.589Z,8.90
2023-06-21T18:38:57.602Z,7.68
2023-06-21T18:41:24.953Z,6.70
2023-06-21T18:43:52.546Z,8.60
2023-06-21T18:46:19.548Z,6.80
2023-06-21T18:48:48.687Z,8.23
2023-06-21T18:51:15.720Z,7.57
2023-06-21T18:53:42.734Z,7.50
2023-06-21T18:56:09.709Z,12.75
2023-06-21T18:58:38.790Z,9.52
2023-06-21T19:01:05.763Z,8.75
2023-06-21T19:03:32.947Z,13.40
2023-06-21T19:06:00.032Z,11.00
2023-06-21T19:08:26.978Z,9.88
2023-06-21T19:10:54.025Z,13.38
2023-06-21T19:13:21.065Z,8.80
2023-06-21T19:15:48.059Z,13.85
2023-06-21T19:18:15.182Z,9.38
2023-06-21T19:20:42.198Z,10.93
2023-06-21T19:23:09.153Z,10.25
2023-06-21T19:25:36.143Z,9.60
2023-06-21T19:28:03.090Z,8.40
2023-06-21T19:30:30.440Z,7.95
2023-06-21T19:32:57.873Z,7.32
2023-06-21T19:35:24.858Z,11.73
2023-06-21T19:37:51.806Z,10.65
2023-06-21T19:40:18.863Z,8.77
2023-06-21T19:42:48.855Z,11.77
2023-06-21T19:45:16.421Z,9.87
2023-06-21T19:47:43.416Z,9.88
2023-06-21T19:50:13.351Z,10.88
2023-06-21T19:52:40.290Z,8.83
2023-06-21T19:55:08.052Z,11.73
2023-06-21T19:57:34.964Z,8.65
2023-06-21T20:00:01.989Z,10.23
2023-06-21T20:02:28.965Z,9.02
2023-06-21T20:04:58.845Z,10.30
2023-06-21T20:07:25.792Z,10.48
2023-06-21T20:09:53.149Z,10.00
2023-06-21T20:12:20.219Z,8.75
2023-06-21T20:14:47.421Z,10.55
2023-06-21T20:17:14.355Z,8.95
2023-06-21T20:19:41.404Z,10.45
2023-06-21T20:22:08.418Z,13.00
2023-06-21T20:24:35.414Z,8.85
2023-06-21T20:27:05.241Z,10.55
2023-06-21T20:29:32.182Z,9.60
2023-06-21T20:32:00.700Z,13.05
2023-06-21T20:34:27.651Z,10.23
2023-06-21T20:36:55.169Z,8.60
2023-06-21T20:39:22.434Z,9.80
2023-06-21T20:41:49.377Z,10.68
2023-06-21T20:44:18.508Z,12.43
2023-06-21T20:46:46.460Z,10.82
2023-06-21T20:49:13.516Z,11.35
2023-06-21T20:51:41.031Z,10.35
2023-06-21T20:54:12.400Z,13.88
2023-06-21T20:56:40.462Z,11.60
2023-06-21T20:59:08.191Z,12.43
2023-06-21T21:01:39.704Z,12.98
2023-06-21T21:04:08.680Z,9.57
2023-06-21T21:06:36.686Z,10.75
2023-06-21T21:09:03.906Z,10.63
2023-06-21T21:11:31.296Z,11.80
2023-06-21T21:14:01.518Z,14.82
2023-06-21T21:16:29.078Z,14.90
2023-06-21T21:18:55.998Z,14.93
2023-06-21T21:21:22.999Z,13.68
2023-06-21T21:23:51.694Z,16.77
2023-06-21T21:26:18.660Z,21.90
2023-06-21T21:28:45.779Z,15.88
2023-06-21T21:31:12.804Z,18.02
2023-06-21T21:33:39.784Z,17.42
2023-06-21T21:36:07.017Z,18.63
2023-06-21T21:38:34.223Z,18.98
2023-06-21T21:41:01.258Z,15.88
2023-06-21T21:43:28.181Z,17.52
2023-06-21T21:45:55.240Z,14.57
2023-06-21T21:48:22.205Z,13.38
2023-06-21T21:50:49.276Z,14.90
2023-06-21T21:53:16.263Z,21.80
2023-06-21T21:55:44.901Z,16.38
2023-06-21T21:58:12.776Z,15.75
2023-06-21T22:00:39.774Z,15.73
2023-06-21T22:03:07.241Z,14.90
2023-06-21T22:05:34.362Z,13.43
2023-06-21T22:08:01.376Z,15.15
2023-06-21T22:10:38.308Z,14.38
2023-06-21T22:13:10.705Z,14.45
2023-06-21T22:15:50.381Z,15.15
2023-06-21T22:18:17.965Z,14.98
2023-06-21T22:20:44.954Z,15.73
2023-06-21T22:23:12.503Z,17.65
2023-06-21T22:25:39.526Z,16.35
2023-06-21T22:28:06.526Z,13.20
2023-06-21T22:30:35.494Z,12.27
2023-06-21T22:33:02.636Z,14.27
2023-06-21T22:35:29.849Z,13.23
2023-06-21T22:37:56.851Z,13.30
2023-06-21T22:40:23.805Z,13.82
2023-06-21T22:42:50.749Z,12.75
2023-06-21T22:45:17.725Z,14.73
2023-06-21T22:47:44.764Z,15.52
2023-06-21T22:50:11.771Z,16.73
2023-06-21T22:52:39.182Z,14.45
2023-06-21T22:55:06.664Z,18.77
2023-06-21T22:57:33.619Z,17.15
2023-06-21T23:00:00.618Z,13.60
2023-06-21T23:02:27.680Z,12.63
2023-06-21T23:04:54.868Z,11.93
2023-06-21T23:07:22.346Z,11.73
2023-06-21T23:09:49.271Z,15.02
2023-06-21T23:12:16.188Z,12.20
2023-06-21T23:14:44.127Z,13.13
2023-06-21T23:17:13.391Z,12.18
2023-06-21T23:19:40.314Z,15.13
2023-06-21T23:22:07.308Z,12.45
2023-06-21T23:24:35.288Z,12.43
2023-06-21T23:27:07.925Z,14.18
2023-06-21T23:29:42.111Z,13.20
2023-06-21T23:32:10.677Z,14.43
2023-06-21T23:34:39.118Z,13.93
2023-06-21T23:37:06.417Z,13.35
2023-06-21T23:39:33.395Z,12.38
2023-06-21T23:42:00.390Z,13.52
2023-06-21T23:44:27.956Z,12.55
2023-06-21T23:46:54.957Z,12.40
2023-06-21T23:49:22.953Z,16.60
2023-06-21T23:51:53.302Z,12.38
2023-06-21T23:54:27.103Z,13.82
2023-06-21T23:56:54.342Z,15.70
2023-06-21T23:59:21.290Z,13.48
